sensor_id;sensor_type;location;lat;lon;timestamp;pressure;altitude;pressure_sealevel;temperature;humidity
71642;BME280;60657;50.122;14.468;2023-05-09T00:00:56;99048.68585808527;;;10.13160906385901;57.689250019073775
71642;BME280;60657;50.122;14.468;2023-05-09T00:04:02;99045.3060698736;;;10.062180514229041;57.67399099717708
71642;BME280;60657;50.122;14.468;2023-05-09T00:07:08;99044.3959723578;;;9.97940032043946;57.614862287327384
71642;BME280;60657;50.122;14.468;2023-05-09T00:10:15;99039.39979790531;;;10.011444266422522;57.64919508659495
71642;BME280;60657;50.122;14.468;2023-05-09T00:13:21;99036.8924112778;;;9.982070649271378;57.42984664682994
71642;BME280;60657;50.122;14.468;2023-05-09T00:16:27;99042.78021758006;;;10.027466239414053;57.036926832990005
71642;BME280;60657;50.122;14.468;2023-05-09T00:19:33;99038.50745375619;;;9.904631113145648;57.24101625085832
71642;BME280;60657;50.122;14.468;2023-05-09T00:22:40;99034.21273763751;;;9.79247730220493;57.420309758144505
71642;BME280;60657;50.122;14.468;2023-05-09T00:25:46;99026.70974190428;;;9.795147631036848;57.24673838406958
71642;BME280;60657;50.122;14.468;2023-05-09T00:28:52;99031.09799376015;;;9.97940032043946;56.663080796520944
71642;BME280;60657;50.122;14.468;2023-05-09T00:31:58;99027.81043609495;;;9.95536736095216;56.2568093385214
71642;BME280;60657;50.122;14.468;2023-05-09T00:35:05;99030.2991969959;;;10.027466239414053;56.392233157854584
71642;BME280;60657;50.122;14.468;2023-05-09T00:38:12;99025.11560360096;;;9.816510261692223;56.6401922636759
71642;BME280;60657;50.122;14.468;2023-05-09T00:41:18;99025.87392968341;;;9.805828946364535;56.811856260013734
71642;BME280;60657;50.122;14.468;2023-05-09T00:44:24;99026.69017672284;;;9.78446631570916;56.905317769130995
71642;BME280;60657;50.122;14.468;2023-05-09T00:47:32;99026.82535102106;;;9.875257495994504;56.439917601281756
71642;BME280;60657;50.122;14.468;2023-05-09T00:50:39;99016.69983313075;;;9.733730067902648;56.514305333028155
71642;BME280;60657;50.122;14.468;2023-05-09T00:53:46;99020.76015607308;;;9.688334477759973;56.6840619516289
71642;BME280;60657;50.122;14.468;2023-05-09T00:56:52;99022.41179290057;;;9.666971847104598;56.74891279468986
71642;BME280;60657;50.122;14.468;2023-05-09T00:59:59;99012.44205796967;;;9.661631189440754;56.739375906004426
71642;BME280;60657;50.122;14.468;2023-05-09T01:03:05;99010.75052906082;;;9.629587243457692;56.644007019150074
71642;BME280;60657;50.122;14.468;2023-05-09T01:06:15;99011.44409365728;;;9.581521324483099;56.83283741512169
71642;BME280;60657;50.122;14.468;2023-05-09T01:09:29;99003.88012401956;;;9.439993896391243;57.03501945525292
71642;BME280;60657;50.122;14.468;2023-05-09T01:12:45;99006.47027533088;;;9.541466392004274;56.91676203555352
71642;BME280;60657;50.122;14.468;2023-05-09T01:16:02;99002.4130296463;;;9.581521324483099;56.701228351262685
71642;BME280;60657;50.122;14.468;2023-05-09T01:19:18;98996.62291257038;;;9.600213626306555;56.68978408484016
71642;BME280;60657;50.122;14.468;2023-05-09T01:22:45;99008.18267202859;;;9.57885099565118;56.5810635538262
71642;BME280;60657;50.122;14.468;2023-05-09T01:26:10;99000.74157855085;;;9.541466392004274;56.6249332417792
71642;BME280;60657;50.122;14.468;2023-05-09T01:29:41;98992.54292615714;;;9.624246585793848;56.62302586404211
71642;BME280;60657;50.122;14.468;2023-05-09T01:32:52;98995.66663348877;;;9.541466392004274;56.829022659647514
71642;BME280;60657;50.122;14.468;2023-05-09T01:36:06;99000.57847947092;;;9.421301594567787;57.00450141145953
71642;BME280;60657;50.122;14.468;2023-05-09T01:39:17;98998.90690404791;;;9.418631265735868;57.063630121309224
71642;BME280;60657;50.122;14.468;2023-05-09T01:42:33;98998.92760545983;;;9.448004882887005;57.08079652094301
71642;BME280;60657;50.122;14.468;2023-05-09T01:45:44;98997.31771104658;;;9.496070801861599;57.0083161669337
71642;BME280;60657;50.122;14.468;2023-05-09T01:48:53;98992.95142826899;;;9.34119172961013;57.26771953917754
71642;BME280;60657;50.122;14.468;2023-05-09T01:52:03;98993.0356637687;;;9.38391699092088;57.18379491874571
71642;BME280;60657;50.122;14.468;2023-05-09T01:55:13;98983.86341592122;;;9.381246662088962;57.53475242236973
71642;BME280;60657;50.122;14.468;2023-05-09T01:58:22;98980.39345068263;;;9.245059891660944;57.70641641870756
71642;BME280;60657;50.122;14.468;2023-05-09T02:01:31;98995.22050235042;;;9.207675288014038;57.97726405737392
71642;BME280;60657;50.122;14.468;2023-05-09T02:04:39;98981.20772721854;;;9.245059891660944;57.811322194247346
71642;BME280;60657;50.122;14.468;2023-05-09T02:07:48;98979.3833762595;;;9.09552147707332;58.15274280918594
71642;BME280;60657;50.122;14.468;2023-05-09T02:10:59;98986.79457617036;;;9.122224765392538;58.3339436942092
71642;BME280;60657;50.122;14.468;2023-05-09T02:14:05;98985.18988605094;;;9.098191805905245;58.14511329823759
71642;BME280;60657;50.122;14.468;2023-05-09T02:17:11;98976.14989902817;;;9.124895094224463;58.46555275806821
71642;BME280;60657;50.122;14.468;2023-05-09T02:20:18;98976.87594164968;;;9.09552147707332;58.20805676356146
71642;BME280;60657;50.122;14.468;2023-05-09T02:23:24;98976.74148915826;;;8.991378652628363;58.53421835660335
71642;BME280;60657;50.122;14.468;2023-05-09T02:26:31;98966.75683665561;;;8.921950102998395;58.35683222705424
71642;BME280;60657;50.122;14.468;2023-05-09T02:29:40;98968.9399558542;;;8.788433661402301;59.0701915007248
71642;BME280;60657;50.122;14.468;2023-05-09T02:32:50;98972.25993251034;;;8.769741359578852;58.88899061570153
71642;BME280;60657;50.122;14.468;2023-05-09T02:36:02;98967.91122532205;;;8.692301823453114;59.32387273975738
71642;BME280;60657;50.122;14.468;2023-05-09T02:39:10;98961.51142237012;;;8.807125963225758;59.13122758831159
71642;BME280;60657;50.122;14.468;2023-05-09T02:42:17;98968.00830351669;;;8.72968642710002;59.18081940947586
71642;BME280;60657;50.122;14.468;2023-05-09T02:45:27;98968.15138781864;;;8.801785305561914;59.074006256198984
71642;BME280;60657;50.122;14.468;2023-05-09T02:48:33;98968.10403084822;;;8.78042267490654;59.07209887846189
71642;BME280;60657;50.122;14.468;2023-05-09T02:51:39;98966.40836997537;;;8.743038071259633;59.0110627908751
71642;BME280;60657;50.122;14.468;2023-05-09T02:54:46;98967.86217977265;;;8.641565575646602;59.39253833829251
71642;BME280;60657;50.122;14.468;2023-05-09T02:57:52;98959.69712568556;;;8.68696116578927;59.33340962844282
71642;BME280;60657;50.122;14.468;2023-05-09T03:00:58;98967.05074593016;;;8.620202944991227;59.318150606546126
71642;BME280;60657;50.122;14.468;2023-05-09T03:04:05;98963.13602253143;;;8.743038071259633;59.22850385290303
71642;BME280;60657;50.122;14.468;2023-05-09T03:07:11;98961.46426498472;;;8.748378728923477;59.18654154268711
71642;BME280;60657;50.122;14.468;2023-05-09T03:10:17;98966.3122358302;;;8.641565575646602;59.42877851529717
71642;BME280;60657;50.122;14.468;2023-05-09T03:13:26;98961.3928955445;;;8.705653467612727;59.213244831006335
71642;BME280;60657;50.122;14.468;2023-05-09T03:16:32;98954.75361479583;;;8.654917219806208;59.49553673609522
71642;BME280;60657;50.122;14.468;2023-05-09T03:19:39;98953.0100355455;;;8.654917219806208;59.25711451895934
71642;BME280;60657;50.122;14.468;2023-05-09T03:22:45;98959.5514973468;;;8.593499656672009;59.360112916762034
71642;BME280;60657;50.122;14.468;2023-05-09T03:25:51;98958.83715689614;;;8.64423590447852;59.37537193865873
71642;BME280;60657;50.122;14.468;2023-05-09T03:28:57;98961.98549923037;;;8.553444724193177;59.26665140764477
71642;BME280;60657;50.122;14.468;2023-05-09T03:32:04;98959.30203323915;;;8.484016174563209;59.29526207370108
71642;BME280;60657;50.122;14.468;2023-05-09T03:35:10;98955.69966586962;;;8.20897230487526;59.94949263752193
71642;BME280;60657;50.122;14.468;2023-05-09T03:38:17;98962.46682048007;;;8.387884336614022;60.09445334554056
71642;BME280;60657;50.122;14.468;2023-05-09T03:41:24;98957.52774604052;;;8.363851377126728;60.00099183642328
71642;BME280;60657;50.122;14.468;2023-05-09T03:44:30;98960.06161667223;;;8.41458762493324;60.02960250247959
71642;BME280;60657;50.122;14.468;2023-05-09T03:47:36;98955.90693232988;;;8.427939269092853;59.8655680170901
71642;BME280;60657;50.122;14.468;2023-05-09T03:50:43;98963.40592452521;;;8.443961242084384;60.02769512474251
71642;BME280;60657;50.122;14.468;2023-05-09T03:53:49;98946.12724347573;;;8.513389791714353;59.66529335469596
71642;BME280;60657;50.122;14.468;2023-05-09T03:56:55;98946.07741260083;;;8.48134584573129;59.699626153963536
71642;BME280;60657;50.122;14.468;2023-05-09T04:00:02;98955.90693232988;;;8.419928282597084;59.754940108339056
71642;BME280;60657;50.122;14.468;2023-05-09T04:03:09;98950.23209203743;;;8.513389791714353;59.88273441672389
71642;BME280;60657;50.122;14.468;2023-05-09T04:06:16;98954.72975591653;;;8.705653467612727;59.30479896238651
71642;BME280;60657;50.122;14.468;2023-05-09T04:09:22;98953.94154715685;;;8.75371938658732;58.94811932555123
71642;BME280;60657;50.122;14.468;2023-05-09T04:12:29;98954.63347622968;;;8.646906233310446;59.42877851529717
71642;BME280;60657;50.122;14.468;2023-05-09T04:15:40;98952.19822026543;;;8.764400701915008;59.268558785381856
71642;BME280;60657;50.122;14.468;2023-05-09T04:18:46;98951.38634169086;;;8.692301823453114;59.671015487907226
71642;BME280;60657;50.122;14.468;2023-05-09T04:21:52;98949.80979384313;;;8.783093003738458;59.27046616311894
71642;BME280;60657;50.122;14.468;2023-05-09T04:24:59;98946.69888493925;;;8.919279774166476;59.73777370870528
71642;BME280;60657;50.122;14.468;2023-05-09T04:28:07;98949.20600745559;;;8.868543526359957;58.92523079270619
71642;BME280;60657;50.122;14.468;2023-05-09T04:31:13;98937.81872189413;;;9.023422598611432;59.45738918135348
71642;BME280;60657;50.122;14.468;2023-05-09T04:34:20;98942.25045467626;;;9.237048905165182;58.98435950255589
71642;BME280;60657;50.122;14.468;2023-05-09T04:37:26;98941.22557161968;;;9.122224765392538;58.295796139467456
71642;BME280;60657;50.122;14.468;2023-05-09T04:40:33;98942.2916024308;;;9.290455481803619;57.60151064316777
71642;BME280;60657;50.122;14.468;2023-05-09T04:43:39;98936.48457750972;;;9.303807125963225;57.614862287327384
71642;BME280;60657;50.122;14.468;2023-05-09T04:46:45;98947.09568368745;;;9.060807202258339;57.38979171435111
71642;BME280;60657;50.122;14.468;2023-05-09T04:49:52;98937.23780517958;;;9.191653315022506;57.56527046616312
71642;BME280;60657;50.122;14.468;2023-05-09T04:52:58;98944.79792686971;;;9.303807125963225;57.06172274357214
71642;BME280;60657;50.122;14.468;2023-05-09T04:56:05;98937.2584735505;;;9.261081864652475;57.38025482566567
71642;BME280;60657;50.122;14.468;2023-05-09T04:59:11;98934.85442952259;;;9.351873044937818;57.32303349355306
71642;BME280;60657;50.122;14.468;2023-05-09T05:02:18;98935.03306065977;;;9.504081788357368;57.12466620889601
71642;BME280;60657;50.122;14.468;2023-05-09T05:05:24;98936.54533908045;;;9.415960936903943;57.139925230792706
71642;BME280;60657;50.122;14.468;2023-05-09T05:08:30;98935.66953521996;;;9.399938963912412;56.92629892423896
71642;BME280;60657;50.122;14.468;2023-05-09T05:11:37;98931.57340518181;;;9.319829098954756;57.298237582970934
71642;BME280;60657;50.122;14.468;2023-05-09T05:14:43;98927.53512747296;;;9.421301594567787;56.88052185854887
71642;BME280;60657;50.122;14.468;2023-05-09T05:17:50;98925.36644480712;;;9.752422369726098;56.47997253376059
71642;BME280;60657;50.122;14.468;2023-05-09T05:20:56;98940.08351681646;;;9.562829022659649;56.27779049362936
71642;BME280;60657;50.122;14.468;2023-05-09T05:24:03;98930.95316192563;;;9.589532310978868;57.07698176546884
71642;BME280;60657;50.122;14.468;2023-05-09T05:27:09;98925.59277255987;;;9.917982757305253;56.42656595712215
71642;BME280;60657;50.122;14.468;2023-05-09T05:30:16;98924.21286426854;;;10.193026626993209;56.01838712138552
71642;BME280;60657;50.122;14.468;2023-05-09T05:33:22;98928.4324197024;;;10.257114518959334;55.42519264515145
71642;BME280;60657;50.122;14.468;2023-05-09T05:36:29;98939.75409259956;;;10.048828870069428;55.16769665064469
71642;BME280;60657;50.122;14.468;2023-05-09T05:39:36;98932.08278817032;;;9.853894865339129;55.15434500648509
71642;BME280;60657;50.122;14.468;2023-05-09T05:42:42;98919.09427471581;;;10.059510185397116;55.08949416342413
71642;BME280;60657;50.122;14.468;2023-05-09T05:45:49;98923.98968008967;;;10.024795910582135;54.89303425650416
71642;BME280;60657;50.122;14.468;2023-05-09T05:48:55;98924.03890673716;;;10.070191500724803;55.18486305027848
71642;BME280;60657;50.122;14.468;2023-05-09T05:52:01;98914.78912265688;;;10.040817883573666;54.96169985503929
71642;BME280;60657;50.122;14.468;2023-05-09T05:55:08;98911.51594058803;;;10.024795910582135;54.879682612344546
71642;BME280;60657;50.122;14.468;2023-05-09T05:58:15;98915.13636051115;;;10.297169451438165;54.38948653391318
71642;BME280;60657;50.122;14.468;2023-05-09T06:01:21;98911.29588186939;;;10.612268253604945;55.16388189517052
71642;BME280;60657;50.122;14.468;2023-05-09T06:04:27;98903.37190405288;;;11.0582131685359;54.28458075837339
71642;BME280;60657;50.122;14.468;2023-05-09T06:07:34;98896.72845244667;;;11.071564812695506;52.855954833295186
71642;BME280;60657;50.122;14.468;2023-05-09T06:10:40;98897.60017840053;;;11.167696650644693;52.74151216906996
71642;BME280;60657;50.122;14.468;2023-05-09T06:13:46;98907.64441419508;;;11.215762569619287;52.117799649042496
71642;BME280;60657;50.122;14.468;2023-05-09T06:16:53;98909.37999059948;;;11.370641641870755;52.052948805981536
71642;BME280;60657;50.122;14.468;2023-05-09T06:20:05;98896.89546078745;;;11.381322957198442;51.845044632639045
71642;BME280;60657;50.122;14.468;2023-05-09T06:23:17;98890.4590102724;;;11.891355764095522;51.91752498664835
71642;BME280;60657;50.122;14.468;2023-05-09T06:26:23;98884.66632429254;;;12.126344701304646;50.21232928969253
71642;BME280;60657;50.122;14.468;2023-05-09T06:29:29;98891.29744438636;;;12.075608453498134;49.76791027695125
71642;BME280;60657;50.122;14.468;2023-05-09T06:32:36;98880.57086700438;;;12.500190737773707;50.015869382772564
71642;BME280;60657;50.122;14.468;2023-05-09T06:35:43;98892.95458543651;;;12.104982070649271;49.88235294117647
71642;BME280;60657;50.122;14.468;2023-05-09T06:38:49;98877.17845443623;;;12.297245746547645;50.10742351415274
71642;BME280;60657;50.122;14.468;2023-05-09T06:41:55;98870.55861182886;;;12.358663309681852;50.3935301747158
71642;BME280;60657;50.122;14.468;2023-05-09T06:45:04;98856.44679059142;;;12.617685206378269;50.17799649042497
71642;BME280;60657;50.122;14.468;2023-05-09T06:48:11;98855.61751070633;;;12.87136644541085;49.025940337224384
71642;BME280;60657;50.122;14.468;2023-05-09T06:51:18;98859.7697056679;;;13.21049820706493;47.78423743038071
71642;BME280;60657;50.122;14.468;2023-05-09T06:54:24;98848.89782378067;;;13.394750896467535;48.34119172961013
71642;BME280;60657;50.122;14.468;2023-05-09T06:57:31;98839.67081001648;;;13.592355230029753;47.42565041580835
71642;BME280;60657;50.122;14.468;2023-05-09T07:00:37;98848.05529148402;;;13.33066300450141;46.93736171511406
71642;BME280;60657;50.122;14.468;2023-05-09T07:03:44;98843.0575979329;;;13.309300373846035;47.90821698329137
71642;BME280;60657;50.122;14.468;2023-05-09T07:06:50;98829.6936572251;;;13.434805828946367;47.68696116578927
71642;BME280;60657;50.122;14.468;2023-05-09T07:09:57;98829.53598106741;;;13.709849698634315;46.98886091401541
71642;BME280;60657;50.122;14.468;2023-05-09T07:13:03;98837.0760234043;;;13.800640878919658;47.19104295414664
71642;BME280;60657;50.122;14.468;2023-05-09T07:16:10;98826.18043026379;;;13.843366140230408;46.94117647058823
71642;BME280;60657;50.122;14.468;2023-05-09T07:19:16;98822.69345620992;;;14.22255283436332;46.39948119325551
71642;BME280;60657;50.122;14.468;2023-05-09T07:22:25;98821.12977931125;;;14.083695735103383;45.693751430533304
71642;BME280;60657;50.122;14.468;2023-05-09T07:25:31;98829.52212743618;;;13.776607919432365;46.64171816586557
71642;BME280;60657;50.122;14.468;2023-05-09T07:28:38;98824.42491168898;;;14.059662775616083;45.981765468833444
71642;BME280;60657;50.122;14.468;2023-05-09T07:31:44;98817.51048254962;;;14.40947585259785;46.040894178683146
71642;BME280;60657;50.122;14.468;2023-05-09T07:34:51;98810.69252604355;;;14.55634393835355;45.293202105745024
71642;BME280;60657;50.122;14.468;2023-05-09T07:37:57;98803.93379283411;;;14.796673533226517;44.656137941557944
71642;BME280;60657;50.122;14.468;2023-05-09T07:41:04;98803.83141662643;;;14.818036163881892;44.480659189745936
71642;BME280;60657;50.122;14.468;2023-05-09T07:44:10;98790.42753406192;;;14.772640573739224;45.37140459296559
71642;BME280;60657;50.122;14.468;2023-05-09T07:47:17;98799.19643497808;;;15.101091020065617;45.470588235294116
71642;BME280;60657;50.122;14.468;2023-05-09T07:50:23;98791.63913999555;;;15.44022278171969;44.10490577553979
71642;BME280;60657;50.122;14.468;2023-05-09T07:53:30;98788.26717324585;;;15.437552452887772;44.1182574196994
71642;BME280;60657;50.122;14.468;2023-05-09T07:56:36;98776.4177872051;;;15.498970016021971;43.52506294346532
71642;BME280;60657;50.122;14.468;2023-05-09T07:59:43;98766.27372771733;;;15.637827115281908;43.82070649271382
71642;BME280;60657;50.122;14.468;2023-05-09T08:02:49;98761.14306139824;;;15.541695277332721;44.21744106202792
71642;BME280;60657;50.122;14.468;2023-05-09T08:05:56;98765.51584068272;;;15.386816205081253;44.11635004196231
71642;BME280;60657;50.122;14.468;2023-05-09T08:09:02;98751.77837090469;;;15.715266651407646;43.70817120622568
71642;BME280;60657;50.122;14.468;2023-05-09T08:12:14;98753.58693670169;;;16.342793926909287;42.94712748912794
71642;BME280;60657;50.122;14.468;2023-05-09T08:15:22;98744.72146882635;;;16.5884641794461;42.29861905851835
71642;BME280;60657;50.122;14.468;2023-05-09T08:18:28;98736.27715010801;;;16.609826810101474;41.79888609140154
71642;BME280;60657;50.122;14.468;2023-05-09T08:21:35;98731.74388037647;;;16.7593652246891;42.02204928664073
71642;BME280;60657;50.122;14.468;2023-05-09T08:24:46;98735.31552255923;;;17.170595864805065;41.25528343633173
71642;BME280;60657;50.122;14.468;2023-05-09T08:27:54;98734.85162870742;;;17.44563973449302;40.21576256961929
71642;BME280;60657;50.122;14.468;2023-05-09T08:31:00;98733.68558529491;;;17.125200274662397;39.962081330586706
71642;BME280;60657;50.122;14.468;2023-05-09T08:34:07;98734.709878452;;;17.122529945830472;40.76699473563745
71642;BME280;60657;50.122;14.468;2023-05-09T08:37:18;98728.56939289688;;;17.05577172503243;41.0244907301442
71642;BME280;60657;50.122;14.468;2023-05-09T08:40:24;98730.61900946994;;;16.96498054474708;41.4956130312047
71642;BME280;60657;50.122;14.468;2023-05-09T08:43:31;98726.56249829911;;;17.418936446173802;40.932936598764016
71642;BME280;60657;50.122;14.468;2023-05-09T08:46:40;98724.66526526798;;;17.46433203631647;39.89913786526284
71642;BME280;60657;50.122;14.468;2023-05-09T08:49:49;98712.34563144931;;;17.750057221332113;40.16235599298085
71642;BME280;60657;50.122;14.468;2023-05-09T08:52:57;98703.09331298959;;;18.035782406347757;40.12993057145037
71642;BME280;60657;50.122;14.468;2023-05-09T08:56:04;98691.07837627316;;;18.139925230792706;39.933470664530404
71642;BME280;60657;50.122;14.468;2023-05-09T08:59:11;98691.14929566935;;;18.238727397573818;38.80811779964904
71642;BME280;60657;50.122;14.468;2023-05-09T09:02:18;98696.43308642294;;;18.046463721675444;38.562066071564814
71642;BME280;60657;50.122;14.468;2023-05-09T09:05:26;98694.82176949091;;;18.27077134355688;39.07515068284123
71642;BME280;60657;50.122;14.468;2023-05-09T09:08:35;98687.97766232428;;;18.030441748683913;38.392309452964064
71642;BME280;60657;50.122;14.468;2023-05-09T09:11:42;98684.73500869621;;;18.123903257801175;38.991226062409396
71642;BME280;60657;50.122;14.468;2023-05-09T09:14:51;98688.59301078258;;;17.79545281147478;40.290150301365685
71642;BME280;60657;50.122;14.468;2023-05-09T09:18:00;98676.82399934332;;;18.190661478599225;40.70595864805066
71642;BME280;60657;50.122;14.468;2023-05-09T09:21:13;98669.64517840992;;;18.69802395666438;40.280613412680246
71642;BME280;60657;50.122;14.468;2023-05-09T09:24:21;98677.13236849911;;;18.724727244983598;38.00701915007248
71642;BME280;60657;50.122;14.468;2023-05-09T09:27:30;98678.33581948004;;;18.420309758144505;39.08087281605249
71642;BME280;60657;50.122;14.468;2023-05-09T09:30:42;98673.03336608973;;;18.679331654840922;39.30594338902876
71642;BME280;60657;50.122;14.468;2023-05-09T09:33:49;98658.34094363532;;;19.24010070954452;38.06042572671092
71642;BME280;60657;50.122;14.468;2023-05-09T09:36:57;98644.51335784626;;;19.125276569771884;38.895857175555044
71642;BME280;60657;50.122;14.468;2023-05-09T09:40:04;98646.59303453448;;;19.03181506065461;38.82146944380865
71642;BME280;60657;50.122;14.468;2023-05-09T09:43:13;98652.8602663449;;;18.66330968184939;39.09994659342336
71642;BME280;60657;50.122;14.468;2023-05-09T09:46:20;98645.41358367224;;;18.60456244754711;39.393682764934766
71642;BME280;60657;50.122;14.468;2023-05-09T09:49:26;98643.2006994815;;;18.991760128175784;39.20485236896315
71642;BME280;60657;50.122;14.468;2023-05-09T09:52:35;98626.91080209859;;;18.98908979934386;39.849546044098574
71642;BME280;60657;50.122;14.468;2023-05-09T09:55:48;98624.05255578911;;;18.94369420920119;40.27489127946899
71642;BME280;60657;50.122;14.468;2023-05-09T09:59:06;98604.78650930477;;;20.16937514305333;38.83863584344243
71642;BME280;60657;50.122;14.468;2023-05-09T10:02:14;98621.70021647608;;;20.27885862516213;38.13099870298314
71642;BME280;60657;50.122;14.468;2023-05-09T10:05:21;98611.9303369568;;;20.10261692225528;37.646524757763025
71642;BME280;60657;50.122;14.468;2023-05-09T10:08:29;98614.48183021157;;;19.750133516441593;38.811932555123214
71642;BME280;60657;50.122;14.468;2023-05-09T10:11:36;98592.10050338278;;;20.22011139085984;39.086594949263755
71642;BME280;60657;50.122;14.468;2023-05-09T10:14:42;98590.725587016;;;20.29755092698558;37.77050431067369
71642;BME280;60657;50.122;14.468;2023-05-09T10:17:51;98591.76595797698;;;20.465781643396653;37.17540245670253
71642;BME280;60657;50.122;14.468;2023-05-09T10:21:01;98581.59088915745;;;20.31624322880903;37.25932707713436
71642;BME280;60657;50.122;14.468;2023-05-09T10:24:10;98591.29832969616;;;20.369649805447466;37.65415426871137
71642;BME280;60657;50.122;14.468;2023-05-09T10:27:18;98569.11113179488;;;20.257495994506755;38.20920119020371
71642;BME280;60657;50.122;14.468;2023-05-09T10:30:31;98566.85377100355;;;20.658045319295027;37.9593347066453
71642;BME280;60657;50.122;14.468;2023-05-09T10:33:47;98569.70819223662;;;21.18944075684749;37.001831082627604
71642;BME280;60657;50.122;14.468;2023-05-09T10:36:55;98551.29931262894;;;21.4351110093843;36.116807812619214
71642;BME280;60657;50.122;14.468;2023-05-09T10:40:04;98546.76672669569;;;21.662088960097662;38.14435034714275
71642;BME280;60657;50.122;14.468;2023-05-09T10:43:12;98544.8782149398;;;21.755550469214924;36.39337758449683
71642;BME280;60657;50.122;14.468;2023-05-09T10:46:19;98530.8013777522;;;21.696803234912636;36.032883192187384
71642;BME280;60657;50.122;14.468;2023-05-09T10:49:27;98528.68566073876;;;21.56328679331655;36.46013580529488
71642;BME280;60657;50.122;14.468;2023-05-09T10:52:51;98515.83930223297;;;22.08400091554131;36.229343099107346
71642;BME280;60657;50.122;14.468;2023-05-09T10:56:21;98514.16261035528;;;22.65812161440452;35.76775768673228
71642;BME280;60657;50.122;14.468;2023-05-09T10:59:33;98502.72571644443;;;22.618066681925683;34.68055237659266
71642;BME280;60657;50.122;14.468;2023-05-09T11:02:42;98501.9021414061;;;22.834363317311357;34.29907682917525
71642;BME280;60657;50.122;14.468;2023-05-09T11:06:11;98495.54466843403;;;22.41512169069962;34.671015487907226
71642;BME280;60657;50.122;14.468;2023-05-09T11:09:47;98486.56040763059;;;21.977187762264435;35.74677653162432
71642;BME280;60657;50.122;14.468;2023-05-09T11:12:57;98483.12431198175;;;22.34035248340581;36.507820248722055
71642;BME280;60657;50.122;14.468;2023-05-09T11:16:09;98475.88031530556;;;22.393759060044246;36.44678416113527
71642;BME280;60657;50.122;14.468;2023-05-09T11:19:30;98472.54534351698;;;22.52460517280842;36.09582665751125
71642;BME280;60657;50.122;14.468;2023-05-09T11:22:39;98483.45812981663;;;22.13206683451591;36.02906843671321